Southwest Oregon Regional Airport
KOTH : now visible

Aeroporto :











RITROVATECI SU...

 
LOGIN :

Iscrizione | Disclaimer

   EN    FR    IT 

 









Sommario :    VFR   VFR Marginale   IFR   IFR Intensivo   IFR Molto Intensivo
Visibilità : 
Base nubi : 
>= 8 km
>= 3000ft
5 / 8 km
1000 / 3000 ft
1500m / 5 km
500 / 1000 ft
800 / 1500m
200 / 500 ft
< 800m
< 200 ft
Simboli :   Temporali  Nebbia  Neve Forte  Precipitazioni Forti  Vento > 20 kt






- Altitudine del aeroporto : 17 ft
- Codice IATA : OTH


KOTH - Southwest Oregon Regional

ULTIMO METAR :
  • 271956Z 00000KT 10SM CLR 11/06 A3024 RMK AO2 SLP238 T01060056

METARs OBSOLETI :
  • 271856Z 06003KT 10SM CLR 08/06 A3026 RMK AO2 SLP245 T00830056
  • 271756Z 15004KT 10SM CLR 06/04 A3027 RMK AO2 SLP249 T00610044 10061 20000 58008
  • 271656Z 14003KT 10SM CLR 04/04 A3028 RMK AO2 SLP253 T00390039

TAF KOTH
Valido dal 27 a 18 ore il 28 a 18 ore UTC


271742Z 2718/2818 14003KT P6SM SKC
FM272000 31006KT P6SM FEW200
FM280700 VRB03KT 1/2SM FG OVC002
FIR KZSE / America del Nord



MetMap, La meteo Aeronautica in un colpo d'occhio ! - Copyright ORBIFLY Dicembre 2007 - Disclaimer

ORBIFLY MET'MAP TEAM :

Programmazione e sviluppo : Alexandra Zaïnal
Concezione : Baudouin d'Aumeries
Aiuto per la programmazione : Marc-Olivier Méhu
Supporto tecnico e logistico : Manuel Goepfert
Aiuto per la traduzione : Arnaldo La Scala

Contatto : metmap@orbifly.com




FONTI E CREDITI :

   NOAA       Earth
Advisory